Willow River, Canada
Current Conditions -  °F | °C
As of 4:00 AM on Thursday 27 Nov 2014 (Local Time) from CYQZ Reporting Station
Light Snow Light Snow  
Wind Chill: 21°   Ceiling: 1600
Heat Index: 30°   Visibility: 1.2mi
Dew Point: 30°   Wind: 10mph
Humidity: 100%   Direction: 320°NW
Pressure: 29.61"   Gusts: NA
Location:  54.07°N, 122.47°W
Report Text: CYQZ 271200Z AUTO 32009KT 1 1/4SM -SN OVC016 M01/M01 A2961 RMK SLP052
Loading
Personal Weather Stations






























Interactive Weather Map New forecast layout! Learn more

10-Day Weather Forecast

Advertisements
Track Severe Weather on mobile